Time;durP1;ratioP1;P1;durP2;ratioP2;P2;SDS_P1;SDS_P2;PMS_P1;PMS_P2;Temp;Humidity;BMP_temperature;BMP_pressure;BME280_temperature;BME280_humidity;BME280_pressure;Samples;Min_cycle;Max_cycle;Signal;HPM_P1;HPM_P2
2022/03/31 00:00:29;;;;;;;31.48;4.38;;;;;;;;;;5034617;28;20116;-73
2022/03/31 00:02:56;;;;;;;32.25;4.15;;;;;;;;;;5038937;28;20423;-72
2022/03/31 00:05:22;;;;;;;17.25;3.17;;;;;;;;;;5043318;28;20132;-72
2022/03/31 00:07:49;;;;;;;14.90;3.05;;;;;;;;;;5041845;28;20592;-72
2022/03/31 00:10:19;;;;;;;11.95;2.90;;;;;;;;;;5041665;28;20088;-72
2022/03/31 00:12:45;;;;;;;16.48;2.67;;;;;;;;;;5019122;28;20533;-72
2022/03/31 00:15:11;;;;;;;13.45;3.53;;;;;;;;;;5035418;28;20017;-73
2022/03/31 00:17:37;;;;;;;19.55;3.60;;;;;;;;;;5040229;28;20029;-77
2022/03/31 00:20:04;;;;;;;18.00;3.72;;;;;;;;;;5035683;28;20029;-72
2022/03/31 00:22:30;;;;;;;19.48;4.20;;;;;;;;;;5035060;28;20032;-72
2022/03/31 00:24:56;;;;;;;28.33;5.00;;;;;;;;;;5037903;28;20514;-73
2022/03/31 00:27:23;;;;;;;25.95;5.22;;;;;;;;;;5041940;28;20033;-72
2022/03/31 00:29:49;;;;;;;19.88;3.83;;;;;;;;;;5035910;28;20083;-72
2022/03/31 00:32:15;;;;;;;20.73;4.85;;;;;;;;;;5030457;28;20035;-72
2022/03/31 00:34:41;;;;;;;28.50;4.93;;;;;;;;;;5046064;28;20032;-74
2022/03/31 00:37:07;;;;;;;26.05;4.75;;;;;;;;;;5039344;28;20025;-72
2022/03/31 00:39:33;;;;;;;27.70;5.00;;;;;;;;;;5042264;28;20043;-72
2022/03/31 00:42:00;;;;;;;22.25;4.85;;;;;;;;;;5041883;28;20018;-72
2022/03/31 00:44:27;;;;;;;25.38;4.70;;;;;;;;;;5039788;28;20490;-72
2022/03/31 00:46:54;;;;;;;25.85;4.72;;;;;;;;;;5040173;28;20035;-72
2022/03/31 00:49:21;;;;;;;22.90;6.00;;;;;;;;;;5034187;28;20405;-72
2022/03/31 00:51:48;;;;;;;33.55;6.03;;;;;;;;;;5039302;28;20013;-72
2022/03/31 00:54:15;;;;;;;22.83;4.47;;;;;;;;;;5040387;28;20056;-72
2022/03/31 00:56:42;;;;;;;20.73;4.35;;;;;;;;;;5039024;28;20069;-72
2022/03/31 00:59:09;;;;;;;28.88;5.18;;;;;;;;;;5043113;28;20543;-77
2022/03/31 01:01:39;;;;;;;21.25;4.55;;;;;;;;;;5041148;28;20500;-72
2022/03/31 01:04:06;;;;;;;21.10;3.40;;;;;;;;;;5034191;28;20466;-72
2022/03/31 01:06:32;;;;;;;21.15;3.60;;;;;;;;;;5041822;28;20104;-72
2022/03/31 01:08:59;;;;;;;23.23;5.15;;;;;;;;;;5046022;28;20100;-74
2022/03/31 01:11:25;;;;;;;24.95;4.43;;;;;;;;;;5038410;28;20052;-72
2022/03/31 01:13:52;;;;;;;18.25;4.30;;;;;;;;;;5038878;28;20131;-72
2022/03/31 01:16:18;;;;;;;14.40;3.55;;;;;;;;;;5041473;28;20025;-72
2022/03/31 01:18:44;;;;;;;18.92;3.78;;;;;;;;;;5039382;28;20028;-72
2022/03/31 01:21:11;;;;;;;17.63;3.63;;;;;;;;;;5038557;28;20064;-72
2022/03/31 01:23:37;;;;;;;11.88;2.97;;;;;;;;;;5044614;28;20051;-72
2022/03/31 01:26:09;;;;;;;22.92;3.75;;;;;;;;;;5040059;28;20032;-72
2022/03/31 01:28:37;;;;;;;17.08;3.47;;;;;;;;;;5038468;28;20466;-72
2022/03/31 01:31:04;;;;;;;16.02;3.17;;;;;;;;;;5039087;28;20073;-72
2022/03/31 01:33:30;;;;;;;18.20;3.28;;;;;;;;;;5035219;28;20025;-72
2022/03/31 01:35:56;;;;;;;21.33;4.03;;;;;;;;;;5030669;28;20034;-73
2022/03/31 01:38:22;;;;;;;17.85;3.90;;;;;;;;;;5038332;28;20122;-73
2022/03/31 01:40:49;;;;;;;24.95;5.35;;;;;;;;;;5039814;28;20643;-72
2022/03/31 01:43:15;;;;;;;28.92;4.85;;;;;;;;;;5033359;28;20033;-72
2022/03/31 01:45:41;;;;;;;25.65;4.53;;;;;;;;;;5044331;28;20033;-73
2022/03/31 01:48:07;;;;;;;31.75;6.50;;;;;;;;;;5040258;28;20469;-72
2022/03/31 01:50:33;;;;;;;30.98;5.38;;;;;;;;;;5041621;28;20040;-73
2022/03/31 01:52:59;;;;;;;28.77;4.95;;;;;;;;;;5039681;28;20031;-72
2022/03/31 01:55:26;;;;;;;30.58;4.82;;;;;;;;;;5031246;28;20577;-72
2022/03/31 01:57:52;;;;;;;20.83;6.47;;;;;;;;;;5037832;28;20049;-72
2022/03/31 02:00:18;;;;;;;21.65;4.47;;;;;;;;;;5040391;28;20056;-72
2022/03/31 02:02:44;;;;;;;30.88;5.38;;;;;;;;;;5033919;28;20029;-72
2022/03/31 02:05:11;;;;;;;29.67;5.53;;;;;;;;;;5038203;28;20045;-72
2022/03/31 02:07:38;;;;;;;29.73;4.47;;;;;;;;;;5038495;28;20021;-73
2022/03/31 02:10:05;;;;;;;25.33;5.07;;;;;;;;;;5029036;28;20124;-72
2022/03/31 02:12:33;;;;;;;31.52;6.25;;;;;;;;;;5036751;28;20033;-72
2022/03/31 02:14:59;;;;;;;25.20;5.25;;;;;;;;;;5043613;28;20025;-72
2022/03/31 02:17:25;;;;;;;23.60;5.30;;;;;;;;;;5034350;28;20100;-72
2022/03/31 02:19:51;;;;;;;21.50;4.30;;;;;;;;;;5036745;28;20039;-72
2022/03/31 02:22:17;;;;;;;26.85;4.68;;;;;;;;;;5038149;28;20017;-72
2022/03/31 02:24:43;;;;;;;26.48;4.60;;;;;;;;;;5033571;28;20481;-72
2022/03/31 02:27:11;;;;;;;20.50;4.07;;;;;;;;;;5033430;28;20029;-72
2022/03/31 02:29:38;;;;;;;20.88;4.25;;;;;;;;;;5033250;28;20033;-72
2022/03/31 02:32:06;;;;;;;23.33;3.85;;;;;;;;;;5031852;28;20025;-72
2022/03/31 02:34:32;;;;;;;19.00;4.15;;;;;;;;;;5036457;28;20566;-72
2022/03/31 02:36:58;;;;;;;21.27;4.15;;;;;;;;;;5028162;28;20033;-72
2022/03/31 02:39:24;;;;;;;17.10;3.70;;;;;;;;;;5033185;28;20032;-72
2022/03/31 02:41:50;;;;;;;22.38;4.22;;;;;;;;;;5014162;28;20025;-73
2022/03/31 02:44:16;;;;;;;20.98;3.92;;;;;;;;;;5011753;28;20045;-74
2022/03/31 02:46:43;;;;;;;21.55;3.95;;;;;;;;;;5028127;28;20029;-72
2022/03/31 02:49:09;;;;;;;13.10;3.47;;;;;;;;;;5029747;28;20072;-72
2022/03/31 02:51:35;;;;;;;17.17;3.00;;;;;;;;;;5035942;28;20079;-73
2022/03/31 02:56:46;;;;;;;18.50;2.78;;;;;;;;;;5028916;28;20447;-73
2022/03/31 02:59:12;;;;;;;19.05;3.40;;;;;;;;;;5032736;28;20033;-72
2022/03/31 03:01:38;;;;;;;18.00;3.05;;;;;;;;;;5033338;28;20457;-72
2022/03/31 03:04:08;;;;;;;12.15;2.35;;;;;;;;;;5027681;28;20037;-72
2022/03/31 03:06:34;;;;;;;24.83;3.30;;;;;;;;;;5034677;28;20071;-72
2022/03/31 03:09:00;;;;;;;12.32;2.10;;;;;;;;;;5029350;28;20450;-72
2022/03/31 03:11:26;;;;;;;14.10;2.60;;;;;;;;;;5032034;28;20037;-72
2022/03/31 03:13:52;;;;;;;16.83;3.08;;;;;;;;;;5035110;28;20049;-72
2022/03/31 03:16:18;;;;;;;26.38;5.07;;;;;;;;;;5036428;28;20107;-73
2022/03/31 03:18:45;;;;;;;31.20;5.47;;;;;;;;;;5028652;28;20149;-72
2022/03/31 03:21:11;;;;;;;23.45;4.88;;;;;;;;;;5024750;28;20025;-74
2022/03/31 03:23:38;;;;;;;31.40;3.83;;;;;;;;;;5041516;28;20271;-72
2022/03/31 03:26:05;;;;;;;29.33;5.07;;;;;;;;;;5042357;28;20025;-72
2022/03/31 03:28:32;;;;;;;37.28;5.22;;;;;;;;;;5043002;28;20036;-73
2022/03/31 03:30:58;;;;;;;36.55;5.72;;;;;;;;;;5042611;28;20036;-72
2022/03/31 03:33:24;;;;;;;35.58;5.43;;;;;;;;;;5044055;28;20032;-72
2022/03/31 03:35:51;;;;;;;33.45;6.20;;;;;;;;;;5060054;28;20025;-72
2022/03/31 03:38:17;;;;;;;33.65;4.65;;;;;;;;;;5045842;28;20029;-72
2022/03/31 03:40:44;;;;;;;31.85;5.60;;;;;;;;;;5042628;28;20079;-72
2022/03/31 03:43:10;;;;;;;40.10;5.85;;;;;;;;;;5042567;28;20029;-72
2022/03/31 03:45:37;;;;;;;20.35;4.80;;;;;;;;;;5042226;28;20025;-74
2022/03/31 03:48:03;;;;;;;24.75;5.22;;;;;;;;;;5059895;28;20695;-72
2022/03/31 03:50:30;;;;;;;26.67;3.40;;;;;;;;;;5062517;28;20043;-72
2022/03/31 03:52:56;;;;;;;16.75;2.72;;;;;;;;;;5060102;28;20102;-72
2022/03/31 03:55:23;;;;;;;15.02;3.53;;;;;;;;;;5061637;28;20069;-72
2022/03/31 03:57:49;;;;;;;13.98;2.88;;;;;;;;;;5061877;28;20043;-73
2022/03/31 04:00:15;;;;;;;22.63;3.30;;;;;;;;;;5058710;28;20591;-75
2022/03/31 04:02:42;;;;;;;19.15;3.35;;;;;;;;;;5040456;28;20055;-71
2022/03/31 04:05:08;;;;;;;13.68;2.88;;;;;;;;;;5041511;28;20120;-73
2022/03/31 04:07:34;;;;;;;22.88;4.22;;;;;;;;;;5049323;28;20078;-72
2022/03/31 04:10:00;;;;;;;23.42;3.60;;;;;;;;;;5061888;28;20166;-76
2022/03/31 04:12:26;;;;;;;19.73;3.80;;;;;;;;;;5059821;28;20480;-72
2022/03/31 04:14:52;;;;;;;27.80;4.20;;;;;;;;;;5059850;28;20938;-72
2022/03/31 04:17:19;;;;;;;20.15;4.13;;;;;;;;;;5061871;28;20040;-73
2022/03/31 04:19:45;;;;;;;23.23;4.20;;;;;;;;;;5061355;28;20024;-71
2022/03/31 04:22:11;;;;;;;22.73;4.30;;;;;;;;;;5059729;28;20086;-72
2022/03/31 04:24:37;;;;;;;23.83;4.03;;;;;;;;;;5061164;28;20036;-73
2022/03/31 04:27:03;;;;;;;23.15;4.45;;;;;;;;;;5061448;28;20024;-73
2022/03/31 04:29:29;;;;;;;22.00;4.25;;;;;;;;;;5058841;28;20524;-72
2022/03/31 04:31:56;;;;;;;20.65;3.90;;;;;;;;;;5061716;28;20028;-72
2022/03/31 04:34:22;;;;;;;25.88;5.82;;;;;;;;;;5059403;28;20013;-74
2022/03/31 04:36:48;;;;;;;20.45;4.35;;;;;;;;;;5060127;28;20039;-72
2022/03/31 04:39:15;;;;;;;18.50;3.90;;;;;;;;;;5045630;28;20044;-72
2022/03/31 04:41:42;;;;;;;17.95;3.00;;;;;;;;;;5059799;28;20073;-72
2022/03/31 04:44:08;;;;;;;13.80;2.65;;;;;;;;;;5050293;28;20529;-72
2022/03/31 04:46:35;;;;;;;19.08;3.58;;;;;;;;;;5023869;28;20086;-72
2022/03/31 04:49:01;;;;;;;18.15;3.42;;;;;;;;;;5040773;28;20017;-72
2022/03/31 04:51:28;;;;;;;15.45;3.65;;;;;;;;;;5039186;28;20643;-76
2022/03/31 04:53:54;;;;;;;23.35;4.65;;;;;;;;;;5040817;28;20614;-72
2022/03/31 04:56:20;;;;;;;15.95;3.55;;;;;;;;;;5040933;28;20051;-72
2022/03/31 04:58:47;;;;;;;23.63;4.05;;;;;;;;;;5040726;28;20029;-72
2022/03/31 05:01:13;;;;;;;20.15;3.83;;;;;;;;;;5039463;28;20044;-72
2022/03/31 05:03:39;;;;;;;19.52;4.32;;;;;;;;;;5040511;28;20056;-72
2022/03/31 05:06:06;;;;;;;28.40;4.50;;;;;;;;;;5040549;28;20052;-72
2022/03/31 05:08:32;;;;;;;26.65;4.47;;;;;;;;;;5055160;28;20597;-72
2022/03/31 05:10:59;;;;;;;17.45;3.47;;;;;;;;;;5056017;28;20037;-72
2022/03/31 05:13:25;;;;;;;16.42;4.15;;;;;;;;;;5039936;28;20037;-72
2022/03/31 05:15:51;;;;;;;24.10;4.18;;;;;;;;;;5039371;28;20029;-72
2022/03/31 05:18:18;;;;;;;23.15;3.67;;;;;;;;;;5040190;28;20029;-72
2022/03/31 05:20:44;;;;;;;15.93;3.15;;;;;;;;;;5040279;28;20071;-72
2022/03/31 05:23:11;;;;;;;19.45;3.92;;;;;;;;;;5037485;28;20024;-72
2022/03/31 05:25:37;;;;;;;23.90;4.13;;;;;;;;;;5030541;28;20078;-72
2022/03/31 05:28:03;;;;;;;19.75;3.58;;;;;;;;;;5042409;28;20028;-72
2022/03/31 05:30:29;;;;;;;25.95;4.18;;;;;;;;;;5042366;28;20102;-72
2022/03/31 05:32:56;;;;;;;27.60;4.07;;;;;;;;;;5040837;28;20608;-74
2022/03/31 05:35:23;;;;;;;24.50;4.70;;;;;;;;;;5046312;28;20075;-72
2022/03/31 05:37:49;;;;;;;21.27;4.50;;;;;;;;;;5062045;28;20065;-73
2022/03/31 05:40:16;;;;;;;27.40;4.38;;;;;;;;;;5053839;28;20052;-72
2022/03/31 05:42:42;;;;;;;21.17;4.43;;;;;;;;;;5061328;28;20107;-72
2022/03/31 05:45:12;;;;;;;24.00;4.63;;;;;;;;;;5060383;28;20020;-72
2022/03/31 05:47:39;;;;;;;25.27;4.30;;;;;;;;;;5043479;28;20769;-75
2022/03/31 05:50:06;;;;;;;24.27;4.88;;;;;;;;;;5022349;28;20052;-72
2022/03/31 05:52:32;;;;;;;16.00;5.57;;;;;;;;;;5022297;28;20029;-72
2022/03/31 05:55:00;;;;;;;22.05;5.03;;;;;;;;;;5020809;28;20094;-72
2022/03/31 05:57:26;;;;;;;20.52;4.97;;;;;;;;;;5020737;28;20094;-72
2022/03/31 05:59:52;;;;;;;17.77;3.85;;;;;;;;;;5020699;28;20079;-72
2022/03/31 06:02:18;;;;;;;17.50;3.55;;;;;;;;;;5039904;28;20094;-72
2022/03/31 06:04:44;;;;;;;12.18;2.80;;;;;;;;;;5051635;28;20704;-73
2022/03/31 06:07:11;;;;;;;10.40;2.67;;;;;;;;;;5040332;28;20045;-72
2022/03/31 06:09:37;;;;;;;9.40;2.53;;;;;;;;;;5040250;28;20037;-72
2022/03/31 06:12:03;;;;;;;8.25;1.65;;;;;;;;;;5058436;28;20029;-72
2022/03/31 06:14:29;;;;;;;4.97;1.25;;;;;;;;;;5037545;28;20041;-72
2022/03/31 06:16:56;;;;;;;5.93;1.67;;;;;;;;;;5039810;28;20029;-72
2022/03/31 06:19:22;;;;;;;9.90;2.35;;;;;;;;;;5038225;28;20512;-72
2022/03/31 06:21:48;;;;;;;9.68;2.78;;;;;;;;;;5039382;28;20697;-72
2022/03/31 06:24:14;;;;;;;6.93;1.83;;;;;;;;;;5050151;28;20043;-72
2022/03/31 06:26:40;;;;;;;6.82;1.65;;;;;;;;;;5059313;28;20028;-72
2022/03/31 06:29:07;;;;;;;5.65;1.58;;;;;;;;;;5059515;28;20034;-72
2022/03/31 06:31:33;;;;;;;8.30;1.75;;;;;;;;;;5059023;28;20039;-73
2022/03/31 06:33:59;;;;;;;7.75;1.80;;;;;;;;;;5057456;28;20654;-72
2022/03/31 06:36:25;;;;;;;5.43;0.88;;;;;;;;;;5048826;28;20106;-73
2022/03/31 06:38:52;;;;;;;5.47;1.20;;;;;;;;;;5039541;28;20120;-72
2022/03/31 06:41:18;;;;;;;5.03;1.00;;;;;;;;;;5037553;28;20503;-72
2022/03/31 06:43:46;;;;;;;3.78;0.75;;;;;;;;;;5039056;28;20028;-72
2022/03/31 06:46:13;;;;;;;4.65;0.90;;;;;;;;;;5039660;28;20051;-72
2022/03/31 06:48:46;;;;;;;11.07;1.25;;;;;;;;;;5039341;28;20025;-72
2022/03/31 06:51:13;;;;;;;7.00;1.27;;;;;;;;;;5038002;28;20037;-71
2022/03/31 06:53:39;;;;;;;4.75;1.27;;;;;;;;;;5041366;28;20358;-72
2022/03/31 06:56:06;;;;;;;5.43;1.10;;;;;;;;;;5057961;28;20036;-72
2022/03/31 06:58:32;;;;;;;7.20;0.80;;;;;;;;;;5045543;28;20048;-72
2022/03/31 07:00:59;;;;;;;6.32;0.90;;;;;;;;;;5062983;28;20118;-72
2022/03/31 07:03:25;;;;;;;3.22;0.50;;;;;;;;;;5059756;28;20025;-71
2022/03/31 07:05:52;;;;;;;6.03;1.00;;;;;;;;;;5045720;28;20505;-72
2022/03/31 07:08:18;;;;;;;3.33;0.82;;;;;;;;;;5042427;28;20041;-72
2022/03/31 07:10:44;;;;;;;2.55;0.70;;;;;;;;;;5046591;28;20048;-71
2022/03/31 07:13:11;;;;;;;3.55;1.00;;;;;;;;;;5062180;28;20032;-72
2022/03/31 07:15:37;;;;;;;5.88;0.95;;;;;;;;;;5059379;28;20148;-72
2022/03/31 07:18:05;;;;;;;5.75;0.98;;;;;;;;;;5062791;28;20024;-72
2022/03/31 07:20:31;;;;;;;7.65;1.35;;;;;;;;;;5062654;28;20116;-74
2022/03/31 07:22:58;;;;;;;3.40;1.17;;;;;;;;;;5062313;28;20032;-72
2022/03/31 07:25:24;;;;;;;2.45;0.90;;;;;;;;;;5061013;28;20024;-71
2022/03/31 07:27:50;;;;;;;5.97;1.25;;;;;;;;;;5062410;28;20017;-72
2022/03/31 07:30:17;;;;;;;6.72;1.10;;;;;;;;;;5062366;28;20033;-73
2022/03/31 07:33:03;;;;;;;7.15;1.10;;;;;;;;;;5061929;28;20523;-71
2022/03/31 07:35:31;;;;;;;13.82;2.17;;;;;;;;;;5047177;28;20037;-73
2022/03/31 07:37:57;;;;;;;8.85;1.88;;;;;;;;;;5042454;28;20028;-73
2022/03/31 07:40:24;;;;;;;9.82;1.92;;;;;;;;;;5051956;28;20045;-73
2022/03/31 07:42:51;;;;;;;5.72;1.20;;;;;;;;;;5049136;28;20078;-71
2022/03/31 07:45:17;;;;;;;7.40;1.23;;;;;;;;;;5050800;28;20031;-71
2022/03/31 07:47:44;;;;;;;7.68;1.60;;;;;;;;;;5040430;28;20051;-72
2022/03/31 07:50:12;;;;;;;7.38;1.40;;;;;;;;;;5042989;28;20029;-72
2022/03/31 07:52:38;;;;;;;7.60;1.40;;;;;;;;;;5043096;28;20036;-72
2022/03/31 07:55:06;;;;;;;5.63;0.85;;;;;;;;;;5040182;28;20544;-74
2022/03/31 07:57:33;;;;;;;4.65;1.10;;;;;;;;;;5048130;28;20036;-74
2022/03/31 07:59:59;;;;;;;6.75;1.25;;;;;;;;;;5042877;28;20045;-72
2022/03/31 08:02:26;;;;;;;4.97;1.50;;;;;;;;;;5048589;28;20020;-73
2022/03/31 08:04:53;;;;;;;7.10;1.15;;;;;;;;;;5046972;28;20475;-73
2022/03/31 08:07:20;;;;;;;8.30;1.60;;;;;;;;;;5041086;28;20084;-72
2022/03/31 08:09:46;;;;;;;11.20;1.60;;;;;;;;;;5041444;28;20052;-72
2022/03/31 08:12:12;;;;;;;11.82;3.05;;;;;;;;;;5056164;28;20044;-72
2022/03/31 08:14:38;;;;;;;22.38;3.40;;;;;;;;;;5058613;28;20032;-74
2022/03/31 08:17:05;;;;;;;10.48;1.67;;;;;;;;;;5043854;28;20069;-71
2022/03/31 08:19:32;;;;;;;8.70;1.90;;;;;;;;;;5050994;28;20695;-72
2022/03/31 08:22:00;;;;;;;14.55;2.20;;;;;;;;;;5044008;28;20672;-72
2022/03/31 08:24:27;;;;;;;14.85;2.72;;;;;;;;;;5052735;28;20029;-72
2022/03/31 08:26:53;;;;;;;15.65;2.83;;;;;;;;;;5039418;28;20032;-71
2022/03/31 08:29:19;;;;;;;14.05;4.20;;;;;;;;;;5043592;28;20090;-71
2022/03/31 08:31:45;;;;;;;20.60;2.50;;;;;;;;;;5055932;28;20080;-74
2022/03/31 08:34:11;;;;;;;17.27;2.50;;;;;;;;;;5059536;28;20020;-71
2022/03/31 08:36:37;;;;;;;10.07;2.20;;;;;;;;;;5052317;28;20040;-71
2022/03/31 08:39:04;;;;;;;13.38;2.45;;;;;;;;;;5042039;28;20029;-75
2022/03/31 08:41:31;;;;;;;17.75;3.10;;;;;;;;;;5040541;28;20059;-72
2022/03/31 08:43:57;;;;;;;17.92;2.42;;;;;;;;;;5040420;28;20029;-73
2022/03/31 08:46:27;;;;;;;16.13;2.60;;;;;;;;;;5039449;28;20544;-71
2022/03/31 08:48:54;;;;;;;14.07;3.47;;;;;;;;;;5039095;28;20034;-72
2022/03/31 08:51:22;;;;;;;14.73;2.17;;;;;;;;;;5041386;28;20048;-74
2022/03/31 08:53:48;;;;;;;11.73;2.92;;;;;;;;;;5040337;28;20110;-74
2022/03/31 08:56:15;;;;;;;14.38;2.70;;;;;;;;;;5040177;28;20493;-75
2022/03/31 08:58:43;;;;;;;13.48;2.70;;;;;;;;;;5038979;28;20258;-72
2022/03/31 09:01:11;;;;;;;10.65;2.72;;;;;;;;;;5040619;28;20120;-75
2022/03/31 09:03:38;;;;;;;16.23;2.20;;;;;;;;;;5040515;28;20052;-72
2022/03/31 09:06:04;;;;;;;16.58;3.08;;;;;;;;;;5047760;28;20072;-74
2022/03/31 09:08:31;;;;;;;13.90;2.47;;;;;;;;;;5040467;28;20063;-73
2022/03/31 09:11:00;;;;;;;16.92;3.22;;;;;;;;;;5055762;28;20776;-72
2022/03/31 09:13:38;;;;;;;18.15;2.90;;;;;;;;;;5041361;28;20481;-73
2022/03/31 09:16:11;;;;;;;10.68;2.30;;;;;;;;;;5037993;28;20605;-73
2022/03/31 09:18:37;;;;;;;10.45;2.22;;;;;;;;;;5053135;28;20111;-74
2022/03/31 09:21:05;;;;;;;15.93;3.10;;;;;;;;;;5059195;28;20119;-71
2022/03/31 09:23:32;;;;;;;17.52;3.20;;;;;;;;;;5056188;28;20029;-72
2022/03/31 09:26:04;;;;;;;12.15;2.10;;;;;;;;;;5034988;28;20042;-72
2022/03/31 09:28:31;;;;;;;14.55;3.00;;;;;;;;;;5045590;28;20074;-72
2022/03/31 09:30:57;;;;;;;12.35;2.47;;;;;;;;;;5045210;28;20049;-71
2022/03/31 09:33:26;;;;;;;19.20;7.07;;;;;;;;;;5055793;28;20028;-73
2022/03/31 09:36:00;;;;;;;21.13;5.57;;;;;;;;;;5050953;28;20511;-74
2022/03/31 09:38:26;;;;;;;16.63;3.63;;;;;;;;;;5039486;28;20502;-72
2022/03/31 09:40:53;;;;;;;18.75;2.72;;;;;;;;;;5039421;28;20382;-72
2022/03/31 09:43:19;;;;;;;14.32;2.50;;;;;;;;;;5039617;28;20067;-72
2022/03/31 09:45:45;;;;;;;15.65;3.65;;;;;;;;;;5050325;28;20112;-72
2022/03/31 09:48:19;;;;;;;14.10;2.63;;;;;;;;;;5050596;28;20705;-74
2022/03/31 09:50:45;;;;;;;11.38;2.95;;;;;;;;;;5038626;28;20033;-72
2022/03/31 09:53:12;;;;;;;13.40;3.50;;;;;;;;;;5021666;28;20108;-71
2022/03/31 09:55:38;;;;;;;13.18;2.65;;;;;;;;;;5039458;28;20035;-71
2022/03/31 09:58:05;;;;;;;9.88;2.13;;;;;;;;;;5048882;28;20039;-71
2022/03/31 10:00:31;;;;;;;11.82;2.53;;;;;;;;;;5043495;28;20036;-71
2022/03/31 10:02:59;;;;;;;14.43;2.50;;;;;;;;;;5039622;28;20033;-71
2022/03/31 10:05:26;;;;;;;16.95;2.30;;;;;;;;;;5043505;28;20088;-71
2022/03/31 10:07:53;;;;;;;10.40;2.58;;;;;;;;;;5051601;28;20059;-72
2022/03/31 10:10:19;;;;;;;12.93;3.03;;;;;;;;;;5036937;28;20037;-72
2022/03/31 10:12:53;;;;;;;16.85;3.53;;;;;;;;;;5037664;28;20033;-73
2022/03/31 10:15:23;;;;;;;12.45;3.42;;;;;;;;;;5030455;28;20036;-72
2022/03/31 10:17:50;;;;;;;14.82;2.67;;;;;;;;;;5019126;28;20029;-72
2022/03/31 10:20:16;;;;;;;15.73;2.92;;;;;;;;;;5029738;28;20823;-72
2022/03/31 10:25:41;;;;;;;19.27;3.63;;;;;;;;;;5038949;28;20080;-71
2022/03/31 10:28:08;;;;;;;19.00;3.38;;;;;;;;;;5055258;28;20025;-71
2022/03/31 10:30:34;;;;;;;18.50;3.15;;;;;;;;;;5060494;28;20524;-72
2022/03/31 10:33:01;;;;;;;66.32;7.35;;;;;;;;;;5041358;28;20102;-73
2022/03/31 10:35:28;;;;;;;71.75;6.60;;;;;;;;;;5045787;28;20028;-73
2022/03/31 10:37:54;;;;;;;96.13;7.45;;;;;;;;;;5044139;28;20514;-73
2022/03/31 10:40:33;;;;;;;49.88;6.63;;;;;;;;;;5043722;28;20025;-72
2022/03/31 10:43:00;;;;;;;34.53;4.93;;;;;;;;;;5055901;28;20020;-73
2022/03/31 10:45:37;;;;;;;17.85;3.90;;;;;;;;;;5049214;28;20447;-71
2022/03/31 10:48:20;;;;;;;34.83;4.03;;;;;;;;;;5044992;28;20100;-71
2022/03/31 10:50:47;;;;;;;18.38;4.35;;;;;;;;;;5057095;28;20534;-71
2022/03/31 10:53:13;;;;;;;20.50;4.40;;;;;;;;;;5036550;28;20033;-76
2022/03/31 10:55:43;;;;;;;12.10;3.20;;;;;;;;;;5054088;28;20277;-74
2022/03/31 10:58:41;;;;;;;18.27;3.05;;;;;;;;;;5038263;28;20435;-71
2022/03/31 11:01:08;;;;;;;16.52;2.90;;;;;;;;;;4996230;28;20485;-73
2022/03/31 11:03:34;;;;;;;18.55;3.50;;;;;;;;;;5048491;28;20104;-72
2022/03/31 11:06:04;;;;;;;12.65;3.17;;;;;;;;;;5048068;28;20709;-71
2022/03/31 11:08:40;;;;;;;15.35;3.35;;;;;;;;;;5043543;28;20053;-75
2022/03/31 11:11:06;;;;;;;14.90;3.83;;;;;;;;;;5038171;28;20032;-71
2022/03/31 11:13:33;;;;;;;20.90;4.05;;;;;;;;;;5043267;28;20029;-72
2022/03/31 11:16:01;;;;;;;17.90;3.92;;;;;;;;;;5050880;28;20029;-72
2022/03/31 11:18:27;;;;;;;13.65;3.65;;;;;;;;;;5054578;28;20021;-72
2022/03/31 11:21:00;;;;;;;14.00;3.72;;;;;;;;;;5050122;28;20490;-72
2022/03/31 11:23:26;;;;;;;14.02;3.72;;;;;;;;;;5054468;28;20031;-71
2022/03/31 11:25:53;;;;;;;19.65;4.78;;;;;;;;;;5026135;28;20082;-71
2022/03/31 11:28:19;;;;;;;16.15;4.22;;;;;;;;;;5048669;28;20025;-71
2022/03/31 11:30:48;;;;;;;23.15;5.07;;;;;;;;;;5046244;28;20044;-72
2022/03/31 11:33:14;;;;;;;16.65;3.92;;;;;;;;;;5046095;28;20385;-72
2022/03/31 11:35:41;;;;;;;19.20;4.47;;;;;;;;;;5047036;28;20524;-73
2022/03/31 11:38:17;;;;;;;32.47;5.32;;;;;;;;;;5043171;28;20535;-74
2022/03/31 11:40:45;;;;;;;21.05;4.43;;;;;;;;;;5034620;28;20429;-71
2022/03/31 11:43:14;;;;;;;23.75;3.95;;;;;;;;;;5063472;28;20028;-72
2022/03/31 11:45:51;;;;;;;21.38;4.18;;;;;;;;;;5043586;28;20029;-72
2022/03/31 11:48:18;;;;;;;19.60;4.43;;;;;;;;;;5042226;28;20079;-75
2022/03/31 11:50:53;;;;;;;19.10;4.00;;;;;;;;;;5042470;28;20775;-73
2022/03/31 11:53:27;;;;;;;16.67;3.90;;;;;;;;;;5058969;28;20039;-73
2022/03/31 11:55:56;;;;;;;18.73;3.67;;;;;;;;;;5061709;28;20048;-73
2022/03/31 11:58:22;;;;;;;16.42;4.22;;;;;;;;;;5063651;28;20369;-73
2022/03/31 12:00:50;;;;;;;22.10;5.05;;;;;;;;;;5063828;28;20029;-72
2022/03/31 12:03:17;;;;;;;23.15;4.63;;;;;;;;;;5044393;28;20473;-73
2022/03/31 12:05:44;;;;;;;14.95;3.75;;;;;;;;;;5043609;28;20072;-72
2022/03/31 12:08:10;;;;;;;15.60;4.18;;;;;;;;;;5043104;28;20056;-72
2022/03/31 12:10:37;;;;;;;17.90;4.20;;;;;;;;;;5041599;28;20537;-72
2022/03/31 12:13:05;;;;;;;21.42;4.05;;;;;;;;;;5044063;28;20021;-72
2022/03/31 12:15:32;;;;;;;14.40;4.18;;;;;;;;;;5044873;28;20035;-73
2022/03/31 12:18:03;;;;;;;16.98;4.78;;;;;;;;;;5045751;28;20020;-73
2022/03/31 12:20:29;;;;;;;15.97;4.20;;;;;;;;;;5046691;28;20024;-73
2022/03/31 12:22:56;;;;;;;16.77;4.72;;;;;;;;;;5043241;28;20262;-74
2022/03/31 12:25:32;;;;;;;16.23;3.88;;;;;;;;;;5041661;28;20025;-72
2022/03/31 12:27:59;;;;;;;18.23;4.90;;;;;;;;;;5046805;28;20040;-72
2022/03/31 12:30:26;;;;;;;16.70;4.70;;;;;;;;;;5051798;28;20035;-75
2022/03/31 12:32:52;;;;;;;18.73;3.78;;;;;;;;;;5043590;28;20063;-74
2022/03/31 12:35:19;;;;;;;14.52;3.58;;;;;;;;;;5053949;28;20025;-72
2022/03/31 12:37:47;;;;;;;15.95;3.95;;;;;;;;;;5056536;28;20404;-72
2022/03/31 12:40:15;;;;;;;11.60;4.05;;;;;;;;;;5051442;28;20036;-73
2022/03/31 12:42:57;;;;;;;16.67;3.75;;;;;;;;;;5044127;28;20111;-73
2022/03/31 12:45:24;;;;;;;13.15;4.07;;;;;;;;;;5061524;28;20025;-72
2022/03/31 12:47:50;;;;;;;16.45;4.05;;;;;;;;;;5034530;28;20562;-72
2022/03/31 12:50:18;;;;;;;16.13;3.80;;;;;;;;;;5042021;28;20036;-74
2022/03/31 12:52:58;;;;;;;32.28;4.55;;;;;;;;;;5044499;28;20078;-73
2022/03/31 12:55:43;;;;;;;13.80;3.83;;;;;;;;;;5042732;28;20024;-73
2022/03/31 12:58:11;;;;;;;12.23;3.55;;;;;;;;;;5022503;28;20038;-72
2022/03/31 13:00:37;;;;;;;12.13;3.38;;;;;;;;;;5024936;28;20964;-73
2022/03/31 13:03:04;;;;;;;9.00;3.35;;;;;;;;;;5052687;28;20024;-73
2022/03/31 13:05:30;;;;;;;14.73;2.95;;;;;;;;;;5040993;28;20497;-73
2022/03/31 13:07:57;;;;;;;15.00;3.22;;;;;;;;;;5045539;28;20048;-73
2022/03/31 13:10:25;;;;;;;14.75;3.10;;;;;;;;;;5051222;28;20033;-72
2022/03/31 13:12:51;;;;;;;7.53;2.40;;;;;;;;;;5052699;28;20017;-72
2022/03/31 13:15:18;;;;;;;9.80;2.85;;;;;;;;;;5042302;28;20029;-73
2022/03/31 13:17:45;;;;;;;9.75;3.13;;;;;;;;;;5040666;28;20029;-72
2022/03/31 13:20:12;;;;;;;12.18;3.10;;;;;;;;;;5041836;28;20155;-72
2022/03/31 13:22:38;;;;;;;12.07;3.75;;;;;;;;;;5041705;28;20028;-73
2022/03/31 13:25:06;;;;;;;11.00;3.38;;;;;;;;;;5042231;28;20036;-72
2022/03/31 13:27:33;;;;;;;12.70;3.58;;;;;;;;;;5024229;28;20053;-73
2022/03/31 13:29:59;;;;;;;8.93;2.97;;;;;;;;;;5041632;28;20033;-73
2022/03/31 13:32:26;;;;;;;9.38;2.72;;;;;;;;;;5040243;28;20021;-73
2022/03/31 13:34:52;;;;;;;5.65;2.08;;;;;;;;;;5041855;28;20079;-73
2022/03/31 13:37:19;;;;;;;6.15;2.20;;;;;;;;;;5042069;28;20019;-72
2022/03/31 13:39:46;;;;;;;11.35;2.50;;;;;;;;;;5041680;28;20048;-74
2022/03/31 13:42:12;;;;;;;5.38;2.28;;;;;;;;;;5039509;28;20025;-72
2022/03/31 13:44:39;;;;;;;9.60;2.72;;;;;;;;;;5041464;28;20115;-74
2022/03/31 13:47:06;;;;;;;9.13;2.42;;;;;;;;;;5060106;28;20029;-72
2022/03/31 13:49:33;;;;;;;10.13;2.35;;;;;;;;;;5061703;28;20587;-72
2022/03/31 13:51:59;;;;;;;8.75;2.72;;;;;;;;;;5061704;28;20465;-73
2022/03/31 13:54:27;;;;;;;9.45;2.42;;;;;;;;;;5060921;28;20484;-74
2022/03/31 13:56:53;;;;;;;7.85;3.00;;;;;;;;;;5060542;28;20036;-73
2022/03/31 14:02:06;;;;;;;10.10;2.60;;;;;;;;;;5040803;28;20885;-73
2022/03/31 14:04:32;;;;;;;15.25;3.00;;;;;;;;;;5039625;28;20079;-73
2022/03/31 14:06:59;;;;;;;9.10;2.70;;;;;;;;;;5041290;28;20063;-73
2022/03/31 14:09:26;;;;;;;11.20;2.40;;;;;;;;;;5041295;28;20032;-73
2022/03/31 14:11:54;;;;;;;9.02;2.40;;;;;;;;;;5041723;28;20029;-72
2022/03/31 14:14:23;;;;;;;12.45;2.50;;;;;;;;;;5052939;28;20515;-72
2022/03/31 14:16:50;;;;;;;9.98;2.53;;;;;;;;;;5061406;28;20032;-72
2022/03/31 14:19:18;;;;;;;12.75;4.30;;;;;;;;;;5061476;28;20028;-73
2022/03/31 14:21:45;;;;;;;11.73;2.13;;;;;;;;;;5058038;28;20093;-72
2022/03/31 14:24:11;;;;;;;7.50;2.42;;;;;;;;;;5053406;28;20020;-73
2022/03/31 14:26:38;;;;;;;9.82;2.47;;;;;;;;;;5045966;28;20025;-72
2022/03/31 14:29:05;;;;;;;6.25;2.13;;;;;;;;;;5042212;28;20031;-73
2022/03/31 14:31:31;;;;;;;6.55;2.58;;;;;;;;;;5032470;28;20086;-72
2022/03/31 14:33:57;;;;;;;6.72;2.47;;;;;;;;;;5043436;28;20031;-72
2022/03/31 14:36:24;;;;;;;9.10;2.30;;;;;;;;;;5053368;28;20067;-72
2022/03/31 14:38:51;;;;;;;8.48;2.65;;;;;;;;;;5049348;28;20073;-72
2022/03/31 14:41:17;;;;;;;9.32;2.65;;;;;;;;;;5055205;28;20040;-72